Time;durP1;ratioP1;P1;durP2;ratioP2;P2;SDS_P1;SDS_P2;PMS_P1;PMS_P2;Temp;Humidity;BMP_temperature;BMP_pressure;BME280_temperature;BME280_humidity;BME280_pressure;Samples;Min_cycle;Max_cycle;Signal;HPM_P1;HPM_P2
2022/10/14 00:00:29;;;;;;;26.17;18.40;;;13.90;99.90;;;;;;5138038;27;20422;-74
2022/10/14 00:02:54;;;;;;;29.33;19.27;;;13.90;99.90;;;;;;5119544;27;20320;-74
2022/10/14 00:05:20;;;;;;;26.13;17.60;;;13.80;99.90;;;;;;5137795;27;20238;-73
2022/10/14 00:07:45;;;;;;;31.83;20.70;;;13.80;99.90;;;;;;5137989;27;20573;-74
2022/10/14 00:10:11;;;;;;;27.07;19.57;;;13.70;99.90;;;;;;5137721;27;20195;-74
2022/10/14 00:12:37;;;;;;;34.70;20.13;;;13.70;99.90;;;;;;5118983;27;20288;-74
2022/10/14 00:15:03;;;;;;;31.43;20.03;;;13.70;99.90;;;;;;5137658;27;20202;-73
2022/10/14 00:17:28;;;;;;;28.93;19.23;;;13.60;99.90;;;;;;5137517;27;20592;-74
2022/10/14 00:19:54;;;;;;;35.10;22.17;;;13.60;99.90;;;;;;5119050;27;20449;-74
2022/10/14 00:22:19;;;;;;;35.20;24.97;;;13.60;99.90;;;;;;5119191;27;20167;-74
2022/10/14 00:24:45;;;;;;;24.83;18.10;;;13.60;99.90;;;;;;5137249;27;20684;-73
2022/10/14 00:27:10;;;;;;;32.47;20.13;;;13.50;99.90;;;;;;5137439;27;20631;-74
2022/10/14 00:29:36;;;;;;;34.00;22.37;;;13.50;99.90;;;;;;5118903;27;20206;-73
2022/10/14 00:32:02;;;;;;;31.30;21.30;;;13.40;99.90;;;;;;5118879;27;20385;-74
2022/10/14 00:34:27;;;;;;;32.13;21.07;;;13.40;99.90;;;;;;5137140;27;20671;-74
2022/10/14 00:36:53;;;;;;;29.30;20.50;;;13.40;99.90;;;;;;5137268;27;20163;-73
2022/10/14 00:39:18;;;;;;;31.03;20.90;;;13.30;99.90;;;;;;5137024;27;20179;-74
2022/10/14 00:41:44;;;;;;;31.97;21.57;;;13.30;99.90;;;;;;5137234;27;20756;-74
2022/10/14 00:44:10;;;;;;;31.70;21.80;;;13.30;99.90;;;;;;5136952;27;20171;-74
2022/10/14 00:46:49;;;;;;;32.60;23.10;;;13.30;99.90;;;;;;5118738;27;20550;-74
2022/10/14 00:49:24;;;;;;;51.73;32.97;;;13.20;99.90;;;;;;5118554;27;20187;-74
2022/10/14 00:52:00;;;;;;;56.57;33.97;;;13.20;99.90;;;;;;5136880;27;20455;-74
2022/10/14 00:54:36;;;;;;;51.90;31.67;;;13.20;99.90;;;;;;5136791;27;20486;-73
2022/10/14 00:57:02;;;;;;;47.00;31.07;;;13.20;99.90;;;;;;5136878;27;20469;-74
2022/10/14 00:59:28;;;;;;;62.20;38.00;;;13.10;99.90;;;;;;5118246;27;20768;-74
2022/10/14 01:01:54;;;;;;;50.40;30.87;;;13.10;99.90;;;;;;5136769;27;20434;-73
2022/10/14 01:04:20;;;;;;;49.83;33.10;;;13.10;99.90;;;;;;5118862;27;20455;-73
2022/10/14 01:07:16;;;;;;;46.30;29.87;;;13.10;99.90;;;;;;5136850;27;20178;-74
2022/10/14 01:10:03;;;;;;;45.83;28.33;;;13.10;99.90;;;;;;5136780;27;20450;-74
2022/10/14 01:12:59;;;;;;;39.77;25.97;;;13.00;99.90;;;;;;5117993;27;20827;-74
2022/10/14 01:15:31;;;;;;;38.83;25.43;;;13.00;99.90;;;;;;5136569;27;20471;-74
2022/10/14 01:18:27;;;;;;;35.07;23.80;;;13.00;99.90;;;;;;5117968;27;20431;-74
2022/10/14 01:21:24;;;;;;;30.90;20.80;;;13.00;99.90;;;;;;5094287;27;20459;-74
2022/10/14 01:24:04;;;;;;;28.77;20.13;;;13.00;99.90;;;;;;5117876;27;20459;-73
2022/10/14 01:26:54;;;;;;;34.13;20.60;;;13.00;99.90;;;;;;5117838;27;20483;-73
2022/10/14 01:29:56;;;;;;;31.10;20.03;;;13.00;99.90;;;;;;5136357;27;20427;-74
2022/10/14 01:32:28;;;;;;;27.40;18.90;;;13.00;99.90;;;;;;5117719;27;20527;-74
2022/10/14 01:35:26;;;;;;;33.47;20.27;;;13.00;99.90;;;;;;5117514;27;20981;-74
2022/10/14 01:38:07;;;;;;;28.93;18.97;;;13.00;99.90;;;;;;5117727;27;20434;-74
2022/10/14 01:40:49;;;;;;;30.43;21.00;;;13.00;99.90;;;;;;5135319;27;20489;-74
2022/10/14 01:43:17;;;;;;;26.27;18.73;;;12.90;99.90;;;;;;5117700;27;20429;-73
2022/10/14 01:45:44;;;;;;;23.60;18.40;;;12.90;99.90;;;;;;5135889;27;20427;-74
2022/10/14 01:48:12;;;;;;;28.97;19.00;;;12.90;99.90;;;;;;5136110;27;20980;-74
2022/10/14 01:50:38;;;;;;;31.90;19.23;;;12.90;99.90;;;;;;5117378;27;20518;-74
2022/10/14 01:53:09;;;;;;;34.07;18.97;;;12.90;99.90;;;;;;5117046;27;20477;-74
2022/10/14 01:55:41;;;;;;;29.03;19.97;;;12.90;99.90;;;;;;5135670;27;20471;-74
2022/10/14 01:58:10;;;;;;;31.80;18.77;;;13.00;99.90;;;;;;5117201;27;20758;-74
2022/10/14 02:00:37;;;;;;;29.30;18.57;;;13.00;99.90;;;;;;5117033;27;20427;-74
2022/10/14 02:03:03;;;;;;;28.23;18.73;;;13.00;99.90;;;;;;5117122;27;20431;-73
2022/10/14 02:05:36;;;;;;;29.30;18.83;;;13.00;99.90;;;;;;5135636;27;20508;-74
2022/10/14 02:08:32;;;;;;;29.83;19.20;;;13.00;99.90;;;;;;5135814;27;20415;-73
2022/10/14 02:11:09;;;;;;;28.43;17.67;;;13.00;99.90;;;;;;5135339;27;20447;-73
2022/10/14 02:14:17;;;;;;;30.13;19.93;;;13.00;99.90;;;;;;5116978;27;20998;-73
2022/10/14 02:16:57;;;;;;;30.37;19.50;;;13.00;99.90;;;;;;5052669;27;20411;-74
2022/10/14 02:19:42;;;;;;;25.07;18.20;;;13.00;99.90;;;;;;5116746;27;20460;-74
2022/10/14 02:22:31;;;;;;;28.30;18.80;;;13.00;99.90;;;;;;5135299;27;20399;-73
2022/10/14 02:25:03;;;;;;;29.07;19.50;;;13.00;99.90;;;;;;5135115;27;20439;-73
2022/10/14 02:27:31;;;;;;;33.90;20.60;;;13.00;99.90;;;;;;5116793;27;20407;-73
2022/10/14 02:29:58;;;;;;;28.83;18.80;;;13.10;99.90;;;;;;5135061;27;20932;-74
2022/10/14 02:32:27;;;;;;;30.47;19.20;;;13.10;99.90;;;;;;5135053;27;20470;-73
2022/10/14 02:34:56;;;;;;;27.77;19.13;;;13.00;99.90;;;;;;5116670;27;21057;-74
2022/10/14 02:37:24;;;;;;;34.80;19.83;;;13.00;99.90;;;;;;5116575;27;20789;-74
2022/10/14 02:40:10;;;;;;;31.53;19.70;;;13.00;99.90;;;;;;5116301;27;20427;-73
2022/10/14 02:42:36;;;;;;;32.83;19.17;;;13.00;99.90;;;;;;5116683;27;20439;-73
2022/10/14 02:45:02;;;;;;;31.10;19.90;;;13.00;99.90;;;;;;5134902;27;20855;-74
2022/10/14 02:47:28;;;;;;;30.33;18.90;;;13.00;99.90;;;;;;5134938;27;20164;-74
2022/10/14 02:49:54;;;;;;;33.00;20.50;;;13.00;99.90;;;;;;5134752;27;20765;-73
2022/10/14 02:52:20;;;;;;;31.50;21.00;;;13.00;99.90;;;;;;5115445;28;20474;-73
2022/10/14 02:54:45;;;;;;;31.77;20.63;;;13.00;99.90;;;;;;5134630;27;20429;-73
2022/10/14 02:57:11;;;;;;;31.60;20.97;;;13.00;99.90;;;;;;5116365;28;20510;-73
2022/10/14 02:59:38;;;;;;;29.63;19.33;;;13.00;99.90;;;;;;5134514;28;20230;-74
2022/10/14 03:02:04;;;;;;;29.73;20.03;;;13.00;99.90;;;;;;5116299;28;20174;-74
2022/10/14 03:04:30;;;;;;;28.07;18.13;;;13.00;99.90;;;;;;5134642;28;20510;-73
2022/10/14 03:06:55;;;;;;;36.57;20.30;;;13.00;99.90;;;;;;5116168;28;21010;-73
2022/10/14 03:09:21;;;;;;;30.70;20.63;;;12.90;99.90;;;;;;5134650;28;20175;-74
2022/10/14 03:11:46;;;;;;;30.30;20.23;;;12.90;99.90;;;;;;5134573;28;20230;-73
2022/10/14 03:14:13;;;;;;;31.93;19.10;;;12.90;99.90;;;;;;5116093;28;20179;-74
2022/10/14 03:16:38;;;;;;;28.27;18.70;;;12.80;99.90;;;;;;5134635;28;20176;-74
2022/10/14 03:19:04;;;;;;;29.80;19.87;;;12.80;99.90;;;;;;5135044;28;20406;-73
2022/10/14 03:21:29;;;;;;;29.30;20.03;;;12.80;99.90;;;;;;5134383;28;20551;-74
2022/10/14 03:23:55;;;;;;;29.47;20.50;;;12.70;99.90;;;;;;5134502;28;20256;-73
2022/10/14 03:26:20;;;;;;;31.83;21.17;;;12.70;99.90;;;;;;5116263;28;20227;-74
2022/10/14 03:28:46;;;;;;;26.07;19.60;;;12.70;99.90;;;;;;5116041;28;20547;-74
2022/10/14 03:31:12;;;;;;;31.63;21.17;;;12.70;99.90;;;;;;5115929;28;20221;-73
2022/10/14 03:33:37;;;;;;;33.97;20.07;;;12.60;99.90;;;;;;5116019;28;20254;-73
2022/10/14 03:36:03;;;;;;;30.27;19.60;;;12.60;99.90;;;;;;5115967;28;20199;-73
2022/10/14 03:38:29;;;;;;;29.40;17.50;;;12.60;99.90;;;;;;5134648;28;20175;-74
2022/10/14 03:40:54;;;;;;;27.77;18.03;;;12.60;99.90;;;;;;5115826;28;20255;-73
2022/10/14 03:43:20;;;;;;;29.87;18.70;;;12.60;99.90;;;;;;5134541;28;20639;-74
2022/10/14 03:45:45;;;;;;;29.27;18.50;;;12.60;99.90;;;;;;5115863;28;20206;-74
2022/10/14 03:48:11;;;;;;;31.70;19.50;;;12.50;99.90;;;;;;5134211;28;20176;-73
2022/10/14 03:50:37;;;;;;;27.67;19.70;;;12.50;99.90;;;;;;5134239;28;20198;-74
2022/10/14 03:53:03;;;;;;;29.53;18.37;;;12.50;99.90;;;;;;5115884;28;20218;-75
2022/10/14 03:55:28;;;;;;;27.50;18.20;;;12.50;99.90;;;;;;5133685;28;20195;-73
2022/10/14 03:57:54;;;;;;;25.20;18.40;;;12.50;99.90;;;;;;5134362;28;20411;-73
2022/10/14 04:00:20;;;;;;;29.70;17.63;;;12.50;99.90;;;;;;5115336;28;20206;-74
2022/10/14 04:02:45;;;;;;;27.63;17.97;;;12.50;99.90;;;;;;5134067;27;20172;-74
2022/10/14 04:05:11;;;;;;;30.30;18.53;;;12.50;99.90;;;;;;5137775;27;20534;-74
2022/10/14 04:07:37;;;;;;;30.63;20.00;;;12.50;99.90;;;;;;5119372;27;20179;-74
2022/10/14 04:10:03;;;;;;;29.87;19.17;;;12.50;99.90;;;;;;5119299;27;20198;-74
2022/10/14 04:12:28;;;;;;;36.03;19.90;;;12.50;99.90;;;;;;5137860;27;20268;-73
2022/10/14 04:14:55;;;;;;;28.77;18.37;;;12.40;99.90;;;;;;5137243;27;20206;-73
2022/10/14 04:17:22;;;;;;;31.73;19.70;;;12.40;99.90;;;;;;5118721;27;20234;-73
2022/10/14 04:19:49;;;;;;;33.70;19.23;;;12.40;99.90;;;;;;5119083;27;20429;-74
2022/10/14 04:22:15;;;;;;;32.70;22.63;;;12.40;99.90;;;;;;5137304;27;20929;-73
2022/10/14 04:24:40;;;;;;;27.90;19.47;;;12.40;99.90;;;;;;5136810;27;20474;-74
2022/10/14 04:27:06;;;;;;;29.27;18.57;;;12.40;99.90;;;;;;5136949;27;20224;-73
2022/10/14 04:29:32;;;;;;;27.27;17.80;;;12.40;99.90;;;;;;5137411;27;20220;-73
2022/10/14 04:31:57;;;;;;;29.70;17.97;;;12.40;99.90;;;;;;5136401;27;20457;-74
2022/10/14 04:34:23;;;;;;;31.10;20.17;;;12.40;99.90;;;;;;5136130;27;20171;-74
2022/10/14 04:36:49;;;;;;;31.73;20.53;;;12.30;99.90;;;;;;5137179;27;20179;-74
2022/10/14 04:39:14;;;;;;;29.87;18.90;;;12.30;99.90;;;;;;5118793;27;20175;-74
2022/10/14 04:41:40;;;;;;;33.27;23.07;;;12.30;99.90;;;;;;5118624;27;20167;-74
2022/10/14 04:44:06;;;;;;;29.60;22.37;;;12.30;99.90;;;;;;5137296;27;20212;-74
2022/10/14 04:46:32;;;;;;;36.70;20.70;;;12.30;99.90;;;;;;5137100;27;21164;-73
2022/10/14 04:48:57;;;;;;;28.77;21.83;;;12.30;99.90;;;;;;5136980;27;20171;-73
2022/10/14 04:51:23;;;;;;;30.90;21.53;;;12.30;99.90;;;;;;5135716;27;20206;-74
2022/10/14 04:53:49;;;;;;;34.20;21.00;;;12.30;99.90;;;;;;5136014;27;20228;-74
2022/10/14 04:56:15;;;;;;;31.23;20.10;;;12.30;99.90;;;;;;5136475;27;20491;-74
2022/10/14 04:58:40;;;;;;;30.30;21.47;;;12.30;99.90;;;;;;5118578;27;20266;-74
2022/10/14 05:01:06;;;;;;;34.10;22.17;;;12.30;99.90;;;;;;5135517;27;20256;-74
2022/10/14 05:03:31;;;;;;;32.57;20.90;;;12.30;99.90;;;;;;5136636;27;20624;-73
2022/10/14 05:05:58;;;;;;;32.03;21.50;;;12.40;99.90;;;;;;5117117;27;20199;-73
2022/10/14 05:08:24;;;;;;;31.17;21.73;;;12.40;99.90;;;;;;5116514;27;20195;-74
2022/10/14 05:10:49;;;;;;;32.40;21.40;;;12.40;99.90;;;;;;5131677;27;20575;-74
2022/10/14 05:13:15;;;;;;;33.33;22.10;;;12.40;99.90;;;;;;5097409;28;20577;-73
2022/10/14 05:15:41;;;;;;;36.07;22.43;;;12.40;99.90;;;;;;5114884;28;20208;-74
2022/10/14 05:18:12;;;;;;;33.30;22.57;;;12.40;99.90;;;;;;5126686;27;20552;-74
2022/10/14 05:20:37;;;;;;;31.40;21.10;;;12.40;99.90;;;;;;5115462;27;20790;-73
2022/10/14 05:23:04;;;;;;;34.70;22.27;;;12.30;99.90;;;;;;5132253;27;20562;-74
2022/10/14 05:25:30;;;;;;;37.50;23.80;;;12.30;99.90;;;;;;5114386;27;20202;-74
2022/10/14 05:27:55;;;;;;;34.37;22.83;;;12.40;99.90;;;;;;5132298;27;20419;-73
2022/10/14 05:30:21;;;;;;;36.77;23.47;;;12.40;99.90;;;;;;5115379;27;20191;-74
2022/10/14 05:32:47;;;;;;;31.80;22.60;;;12.40;99.90;;;;;;5132811;27;20225;-73
2022/10/14 05:35:12;;;;;;;31.47;22.47;;;12.40;99.90;;;;;;5109932;27;20198;-74
2022/10/14 05:37:38;;;;;;;35.87;21.50;;;12.40;99.90;;;;;;5107982;27;20241;-75
2022/10/14 05:40:04;;;;;;;31.97;21.23;;;12.40;99.90;;;;;;5106427;27;20198;-73
2022/10/14 05:42:30;;;;;;;35.40;22.37;;;12.40;99.90;;;;;;5124587;27;20172;-74
2022/10/14 05:44:56;;;;;;;35.47;22.60;;;12.40;99.90;;;;;;5109259;27;20443;-73
2022/10/14 05:47:22;;;;;;;31.07;21.00;;;12.40;99.90;;;;;;5122839;27;20633;-73
2022/10/14 05:49:47;;;;;;;33.57;20.73;;;12.40;99.90;;;;;;5125521;27;20671;-73
2022/10/14 05:52:13;;;;;;;37.97;22.13;;;12.40;99.90;;;;;;5126466;27;20473;-73
2022/10/14 05:54:39;;;;;;;32.20;20.47;;;12.50;99.90;;;;;;5123730;27;20281;-74
2022/10/14 05:57:04;;;;;;;34.57;22.57;;;12.50;99.90;;;;;;5123452;27;20175;-73
2022/10/14 05:59:32;;;;;;;34.13;20.73;;;12.60;99.90;;;;;;5125261;27;20202;-73
2022/10/14 06:01:57;;;;;;;37.17;22.97;;;12.60;99.90;;;;;;5106330;27;20534;-74
2022/10/14 06:04:23;;;;;;;36.43;23.20;;;12.70;99.90;;;;;;5129290;27;20496;-74
2022/10/14 06:06:49;;;;;;;36.90;22.57;;;12.80;99.90;;;;;;5126478;27;20175;-74
2022/10/14 06:09:14;;;;;;;36.27;21.93;;;12.80;99.90;;;;;;5118644;27;20206;-74
2022/10/14 06:11:40;;;;;;;36.07;23.00;;;12.90;99.90;;;;;;5122446;27;20208;-73
2022/10/14 06:14:06;;;;;;;37.77;22.73;;;13.00;99.90;;;;;;5123840;27;20660;-75
2022/10/14 06:16:31;;;;;;;38.20;24.00;;;13.00;99.90;;;;;;5132961;27;20226;-73
2022/10/14 06:18:58;;;;;;;34.90;23.43;;;13.10;99.90;;;;;;5114774;27;20679;-74
2022/10/14 06:21:25;;;;;;;42.47;23.93;;;13.10;99.90;;;;;;5127869;27;20214;-73
2022/10/14 06:23:50;;;;;;;37.10;22.67;;;13.20;99.90;;;;;;5109040;27;20462;-74
2022/10/14 06:26:16;;;;;;;35.60;22.90;;;13.20;99.90;;;;;;5128587;27;20439;-73
2022/10/14 06:28:41;;;;;;;34.80;23.20;;;13.30;99.90;;;;;;5129853;27;20182;-73
2022/10/14 06:31:07;;;;;;;42.43;25.10;;;13.30;99.90;;;;;;5090873;28;20677;-74
2022/10/14 06:33:33;;;;;;;36.20;23.83;;;13.40;99.90;;;;;;5108926;28;20179;-74
2022/10/14 06:36:01;;;;;;;51.43;26.57;;;13.50;99.90;;;;;;5118415;27;20211;-74
2022/10/14 06:38:27;;;;;;;36.27;23.03;;;13.50;99.90;;;;;;5131506;27;20967;-73
2022/10/14 06:40:53;;;;;;;41.10;27.70;;;13.60;99.90;;;;;;5128940;27;20575;-74
2022/10/14 06:43:20;;;;;;;42.97;26.70;;;13.70;99.90;;;;;;5109954;27;20234;-74
2022/10/14 06:45:46;;;;;;;36.63;25.23;;;13.70;99.90;;;;;;5127587;27;20434;-75
2022/10/14 06:48:12;;;;;;;39.80;26.73;;;13.70;99.90;;;;;;5128644;27;20419;-73
2022/10/14 06:50:38;;;;;;;47.20;27.13;;;13.80;99.90;;;;;;5129725;27;20450;-74
2022/10/14 06:53:04;;;;;;;38.90;25.60;;;13.90;99.90;;;;;;5130519;28;20476;-73
2022/10/14 06:55:29;;;;;;;42.97;26.73;;;13.90;99.90;;;;;;5130698;27;20199;-74
2022/10/14 06:57:55;;;;;;;40.93;27.17;;;14.00;99.90;;;;;;5126701;27;20186;-74
2022/10/14 07:00:21;;;;;;;47.37;28.77;;;14.10;99.90;;;;;;5129188;28;20317;-74
2022/10/14 07:02:46;;;;;;;44.40;30.07;;;14.10;99.90;;;;;;5131132;27;20175;-73
2022/10/14 07:05:12;;;;;;;52.43;30.83;;;14.20;99.90;;;;;;5128012;27;20248;-73
2022/10/14 07:07:38;;;;;;;57.40;31.77;;;14.30;99.90;;;;;;5126217;28;20211;-73
2022/10/14 07:10:04;;;;;;;53.43;31.97;;;14.40;99.90;;;;;;5130196;28;20195;-74
2022/10/14 07:12:29;;;;;;;49.83;31.47;;;14.60;99.90;;;;;;5107197;28;20686;-74
2022/10/14 07:14:55;;;;;;;52.97;31.10;;;14.70;99.90;;;;;;5128090;27;20458;-74
2022/10/14 07:17:21;;;;;;;46.27;30.83;;;14.80;99.90;;;;;;5129039;28;20696;-74
2022/10/14 07:19:47;;;;;;;45.83;31.50;;;15.00;99.90;;;;;;5106849;28;20531;-75
2022/10/14 07:22:12;;;;;;;43.20;29.17;;;15.10;99.90;;;;;;5111387;28;20777;-74
2022/10/14 07:24:38;;;;;;;44.03;29.60;;;15.20;99.90;;;;;;5111835;28;20262;-74
2022/10/14 07:27:08;;;;;;;41.30;29.40;;;15.40;99.90;;;;;;5130275;28;20171;-74
2022/10/14 07:29:33;;;;;;;53.47;32.73;;;15.60;99.90;;;;;;5129570;27;20563;-74
2022/10/14 07:31:59;;;;;;;43.03;28.47;;;15.70;99.90;;;;;;5112218;28;20465;-74
2022/10/14 07:34:25;;;;;;;48.30;31.77;;;15.90;99.90;;;;;;5131249;28;20191;-74
2022/10/14 07:36:50;;;;;;;43.47;29.50;;;16.10;99.90;;;;;;5129586;28;20628;-74
2022/10/14 07:39:16;;;;;;;45.50;29.37;;;16.30;99.90;;;;;;5130322;27;20183;-74
2022/10/14 07:41:42;;;;;;;43.80;29.17;;;16.50;99.90;;;;;;5134385;27;20221;-74
2022/10/14 07:44:08;;;;;;;41.50;29.00;;;16.80;99.90;;;;;;5122984;27;20175;-74
2022/10/14 07:46:38;;;;;;;42.63;29.90;;;17.10;99.90;;;;;;5117905;27;20191;-75
2022/10/14 07:49:07;;;;;;;41.67;26.87;;;17.50;99.90;;;;;;5107707;27;20936;-74
2022/10/14 07:51:34;;;;;;;35.90;25.23;;;18.00;99.90;;;;;;5112124;27;20517;-74
2022/10/14 07:54:01;;;;;;;37.93;26.43;;;18.60;99.90;;;;;;5130539;27;20492;-74
2022/10/14 07:56:27;;;;;;;36.10;26.07;;;19.30;99.90;;;;;;5132163;27;20438;-74
2022/10/14 07:58:54;;;;;;;37.40;24.93;;;20.00;99.90;;;;;;5117767;27;20969;-73
2022/10/14 08:01:20;;;;;;;37.93;26.00;;;20.70;99.90;;;;;;5116774;27;20544;-75
2022/10/14 08:03:47;;;;;;;35.80;25.33;;;21.40;99.90;;;;;;5114120;27;20571;-75
2022/10/14 08:06:13;;;;;;;30.87;24.67;;;22.00;99.90;;;;;;5133297;27;20286;-74
2022/10/14 08:08:40;;;;;;;31.63;24.73;;;22.70;99.90;;;;;;5116785;27;20562;-74
2022/10/14 08:11:10;;;;;;;29.33;21.77;;;23.30;99.90;;;;;;5113906;27;20442;-74
2022/10/14 08:13:37;;;;;;;34.00;24.00;;;23.90;99.90;;;;;;5129568;27;20431;-74
2022/10/14 08:16:03;;;;;;;29.13;22.00;;;24.40;99.90;;;;;;5128492;27;20452;-74
2022/10/14 08:18:29;;;;;;;28.73;22.53;;;24.90;99.90;;;;;;5109190;27;20419;-75
2022/10/14 08:20:54;;;;;;;27.00;22.60;;;25.20;99.90;;;;;;5107856;27;20463;-74
2022/10/14 08:23:20;;;;;;;27.67;23.40;;;25.50;99.90;;;;;;5127745;27;20228;-75
2022/10/14 08:25:48;;;;;;;28.50;21.27;;;25.90;99.90;;;;;;5123404;27;20214;-74
2022/10/14 08:28:13;;;;;;;28.90;21.10;;;26.30;99.90;;;;;;5110023;27;20190;-75
2022/10/14 08:30:39;;;;;;;25.53;20.00;;;26.70;99.90;;;;;;5128423;27;20451;-75
2022/10/14 08:33:05;;;;;;;24.40;19.33;;;27.10;99.90;;;;;;5131046;27;20215;-74
2022/10/14 08:35:31;;;;;;;26.57;21.07;;;27.50;99.90;;;;;;5128759;27;20853;-74
2022/10/14 08:37:58;;;;;;;28.23;21.67;;;27.70;99.90;;;;;;5113648;27;20265;-74
2022/10/14 08:40:27;;;;;;;27.67;19.20;;;27.90;99.90;;;;;;5109923;28;20568;-75
2022/10/14 08:43:20;;;;;;;24.43;18.03;;;27.90;99.90;;;;;;5124901;27;20423;-74
2022/10/14 08:45:53;;;;;;;21.77;16.60;;;27.60;99.90;;;;;;5110962;27;21000;-74
2022/10/14 08:48:22;;;;;;;21.73;16.43;;;27.00;99.90;;;;;;5114950;27;20522;-74
2022/10/14 08:51:01;;;;;;;21.10;17.40;;;26.20;99.90;;;;;;5130968;27;20446;-75
2022/10/14 08:53:42;;;;;;;25.40;17.07;;;25.60;99.90;;;;;;5129910;27;20878;-74
2022/10/14 08:56:10;;;;;;;20.17;15.57;;;24.80;99.90;;;;;;5112569;27;20460;-75
2022/10/14 08:58:48;;;;;;;22.40;17.07;;;24.30;99.90;;;;;;5128962;27;20905;-75
2022/10/14 09:01:47;;;;;;;21.73;17.30;;;24.00;99.90;;;;;;5130368;27;20457;-75
2022/10/14 09:04:14;;;;;;;23.50;17.17;;;23.60;99.90;;;;;;5125324;27;20656;-74
2022/10/14 09:06:43;;;;;;;21.80;16.90;;;23.30;99.90;;;;;;5111805;27;20951;-75
2022/10/14 09:09:22;;;;;;;23.57;17.77;;;23.00;99.90;;;;;;5124425;27;20435;-74
2022/10/14 09:12:01;;;;;;;21.90;17.67;;;22.70;99.90;;;;;;5133492;27;20491;-74
2022/10/14 09:14:33;;;;;;;21.57;15.10;;;22.40;99.90;;;;;;5103664;28;20647;-74
2022/10/14 09:17:07;;;;;;;20.40;16.13;;;22.10;99.90;;;;;;5116873;27;20530;-74
2022/10/14 09:19:45;;;;;;;19.47;15.40;;;21.80;99.90;;;;;;5127410;27;20449;-74
2022/10/14 09:22:14;;;;;;;20.53;15.87;;;21.70;99.90;;;;;;5112765;27;20792;-74
2022/10/14 09:24:40;;;;;;;18.47;13.70;;;21.60;99.90;;;;;;5104284;27;20503;-74
2022/10/14 09:27:20;;;;;;;19.80;14.47;;;21.50;99.90;;;;;;5127784;27;20410;-74
2022/10/14 09:29:48;;;;;;;21.07;14.80;;;21.40;99.90;;;;;;5121253;27;20971;-73
2022/10/14 09:32:31;;;;;;;20.70;13.60;;;21.30;99.90;;;;;;5117922;27;20473;-75
2022/10/14 09:34:58;;;;;;;21.17;14.33;;;21.20;99.90;;;;;;5120509;27;20467;-74
2022/10/14 09:37:34;;;;;;;19.40;13.33;;;21.20;99.90;;;;;;5121325;27;20949;-75
2022/10/14 09:40:30;;;;;;;18.50;14.73;;;21.10;99.90;;;;;;5111745;27;20451;-74
2022/10/14 09:43:17;;;;;;;15.50;11.60;;;21.00;99.90;;;;;;5121293;27;20458;-74
2022/10/14 09:45:48;;;;;;;18.67;12.60;;;20.90;99.90;;;;;;5105640;27;20443;-75
2022/10/14 09:48:32;;;;;;;15.20;12.30;;;20.90;99.90;;;;;;5131552;27;20429;-75
2022/10/14 09:51:00;;;;;;;18.07;12.30;;;20.70;99.90;;;;;;5129235;27;20517;-74
2022/10/14 09:53:41;;;;;;;14.03;10.90;;;20.60;99.90;;;;;;5130230;27;20796;-74
2022/10/14 09:56:08;;;;;;;14.23;11.40;;;20.50;99.90;;;;;;5130449;27;20455;-74
2022/10/14 09:58:44;;;;;;;15.07;12.17;;;20.50;99.90;;;;;;5129877;27;20438;-75
2022/10/14 10:01:21;;;;;;;17.43;12.87;;;20.50;99.90;;;;;;5110240;27;20455;-74
2022/10/14 10:03:48;;;;;;;17.10;13.10;;;20.50;99.90;;;;;;5124462;27;20411;-74
2022/10/14 10:06:20;;;;;;;16.77;12.60;;;20.50;99.90;;;;;;5121341;27;20801;-74
2022/10/14 10:08:59;;;;;;;18.50;14.00;;;20.50;99.90;;;;;;5120844;27;20435;-75
2022/10/14 10:11:36;;;;;;;19.67;14.07;;;20.40;99.90;;;;;;5099785;27;20462;-75
2022/10/14 10:14:20;;;;;;;21.40;13.00;;;20.40;99.90;;;;;;5104579;27;20500;-75
2022/10/14 10:16:46;;;;;;;16.33;13.03;;;20.50;99.90;;;;;;5125673;27;20423;-74
2022/10/14 10:19:32;;;;;;;14.20;12.30;;;20.50;99.90;;;;;;5104255;27;20460;-74
2022/10/14 10:22:25;;;;;;;18.07;13.87;;;20.50;99.90;;;;;;5125029;27;20439;-74
2022/10/14 10:25:13;;;;;;;17.20;13.13;;;20.50;99.90;;;;;;5111331;28;20964;-74
2022/10/14 10:27:48;;;;;;;18.50;14.33;;;20.60;99.90;;;;;;5107687;27;20438;-74
2022/10/14 10:30:20;;;;;;;18.80;14.10;;;20.50;99.90;;;;;;5132969;27;20433;-74
2022/10/14 10:32:53;;;;;;;19.83;13.93;;;20.50;99.90;;;;;;5114202;27;20474;-75
2022/10/14 10:35:48;;;;;;;21.27;14.80;;;20.60;99.90;;;;;;5132596;27;20458;-74
2022/10/14 10:38:19;;;;;;;20.30;15.30;;;20.60;99.90;;;;;;5117652;27;20439;-74
2022/10/14 10:41:15;;;;;;;19.33;14.93;;;20.60;99.90;;;;;;5124168;27;20826;-74
2022/10/14 10:43:50;;;;;;;18.20;13.17;;;20.60;99.90;;;;;;5129094;27;20430;-74
2022/10/14 10:47:04;;;;;;;19.60;14.90;;;20.60;99.90;;;;;;5112966;27;20652;-74
2022/10/14 10:50:16;;;;;;;19.63;13.10;;;20.50;99.90;;;;;;5102396;28;20446;-76
2022/10/14 10:53:21;;;;;;;20.17;13.73;;;20.50;99.90;;;;;;5121727;27;20463;-75
2022/10/14 10:56:08;;;;;;;20.40;14.40;;;20.50;99.90;;;;;;5119497;27;20435;-75
2022/10/14 10:59:11;;;;;;;16.20;12.57;;;20.50;99.90;;;;;;5125977;27;20992;-74
2022/10/14 11:01:55;;;;;;;17.73;14.40;;;20.50;99.90;;;;;;5109933;27;20482;-74
2022/10/14 11:04:51;;;;;;;17.80;14.00;;;20.50;99.90;;;;;;5123683;27;20433;-74
2022/10/14 11:13:15;;;;;;;16.47;14.73;;;20.50;99.90;;;;;;5124468;27;20524;-74
2022/10/14 11:16:06;;;;;;;19.40;13.87;;;20.50;99.90;;;;;;5109055;27;20443;-74
2022/10/14 11:19:08;;;;;;;19.50;14.80;;;20.50;99.90;;;;;;5124484;27;21121;-74
2022/10/14 11:21:47;;;;;;;20.67;15.13;;;20.60;99.90;;;;;;5076642;27;20427;-75
2022/10/14 11:24:13;;;;;;;17.27;14.23;;;20.70;99.90;;;;;;5126005;27;20518;-75
2022/10/14 11:27:22;;;;;;;19.60;15.40;;;20.70;99.90;;;;;;5126032;27;20848;-74
2022/10/14 11:30:19;;;;;;;18.60;14.53;;;20.80;99.90;;;;;;5086358;27;20246;-74
2022/10/14 11:33:03;;;;;;;19.03;14.70;;;20.80;99.90;;;;;;5082325;27;20459;-74
2022/10/14 11:35:50;;;;;;;19.30;15.13;;;20.90;99.90;;;;;;5121754;27;20965;-74
2022/10/14 11:38:39;;;;;;;19.53;14.47;;;21.00;99.90;;;;;;5121096;27;20431;-75
2022/10/14 11:41:26;;;;;;;17.40;14.53;;;21.00;99.90;;;;;;5118591;27;20436;-74
2022/10/14 11:44:05;;;;;;;18.90;14.03;;;21.10;99.90;;;;;;5120619;27;20682;-73
2022/10/14 11:46:36;;;;;;;20.93;14.80;;;21.10;99.90;;;;;;5124907;27;20813;-74
2022/10/14 11:49:19;;;;;;;20.10;15.30;;;21.20;99.90;;;;;;5125076;27;20922;-74
2022/10/14 11:52:10;;;;;;;17.27;12.30;;;21.10;99.90;;;;;;5124091;27;20995;-75
2022/10/14 11:54:41;;;;;;;17.67;14.40;;;21.10;99.90;;;;;;5125320;27;20450;-75
2022/10/14 11:57:28;;;;;;;19.90;15.63;;;21.10;99.90;;;;;;5104567;27;20554;-75
2022/10/14 12:00:19;;;;;;;19.57;13.47;;;21.10;99.90;;;;;;5104992;27;20442;-74
2022/10/14 12:03:19;;;;;;;16.53;14.20;;;21.10;99.90;;;;;;5111985;27;20462;-74
2022/10/14 12:06:15;;;;;;;16.83;13.70;;;21.10;99.90;;;;;;5123573;27;20436;-73
2022/10/14 12:09:03;;;;;;;17.93;13.93;;;21.10;99.90;;;;;;5124799;27;20455;-73
2022/10/14 12:11:48;;;;;;;14.97;12.63;;;21.10;99.90;;;;;;5124163;27;20983;-73
2022/10/14 12:14:22;;;;;;;15.40;13.17;;;21.10;99.90;;;;;;5128423;27;20419;-74
2022/10/14 12:16:48;;;;;;;18.30;13.00;;;21.20;99.90;;;;;;5133118;27;20399;-73
2022/10/14 12:19:23;;;;;;;18.20;13.80;;;21.20;99.90;;;;;;5112264;27;20427;-73
2022/10/14 12:22:12;;;;;;;19.10;13.83;;;21.20;99.90;;;;;;5110880;27;20428;-73
2022/10/14 12:24:52;;;;;;;17.23;13.80;;;21.20;99.90;;;;;;5111319;27;20470;-73
2022/10/14 12:27:20;;;;;;;18.23;14.20;;;21.20;99.90;;;;;;5111879;27;20765;-73
2022/10/14 12:29:51;;;;;;;19.40;14.20;;;21.20;99.90;;;;;;5112476;27;20478;-73
2022/10/14 12:32:19;;;;;;;21.67;15.70;;;21.20;99.90;;;;;;5131823;27;20613;-73
2022/10/14 12:34:50;;;;;;;20.03;15.00;;;21.10;99.90;;;;;;5114486;27;20442;-72
2022/10/14 12:37:31;;;;;;;20.87;15.47;;;21.10;99.90;;;;;;5132272;27;20427;-73
2022/10/14 12:39:59;;;;;;;18.97;14.87;;;21.10;99.90;;;;;;5121169;27;20461;-73
2022/10/14 12:42:25;;;;;;;14.50;13.00;;;21.10;99.90;;;;;;5120836;27;20434;-74
2022/10/14 12:45:00;;;;;;;16.80;12.90;;;21.10;99.90;;;;;;5128094;27;20820;-73
2022/10/14 12:47:35;;;;;;;18.07;13.53;;;21.00;99.90;;;;;;5127702;27;20181;-73
2022/10/14 12:50:04;;;;;;;16.37;13.50;;;21.00;99.90;;;;;;5134997;27;20441;-74
2022/10/14 12:52:34;;;;;;;16.73;12.67;;;21.00;99.90;;;;;;5113586;27;20501;-73
2022/10/14 12:55:03;;;;;;;17.13;12.33;;;21.00;99.90;;;;;;5129550;27;20814;-73
2022/10/14 12:57:34;;;;;;;17.60;12.20;;;21.00;99.90;;;;;;5130854;27;20415;-74